Time;durP1;ratioP1;P1;durP2;ratioP2;P2;SDS_P1;SDS_P2;PMS_P1;PMS_P2;Temp;Humidity;BMP_temperature;BMP_pressure;BME280_temperature;BME280_humidity;BME280_pressure;Samples;Min_cycle;Max_cycle;Signal;HPM_P1;HPM_P2
2023/02/25 00:00:31;;;;;;;0.3;0.3;;;;;;;5.51;91.58887;923.6859;;;;
2023/02/25 00:02:59;;;;;;;0.7;0.5;;;;;;;5.43;90.95117;923.8575;;;;
2023/02/25 00:05:36;;;;;;;2.2;0.7;;;;;;;5.21;90.44043;923.901;;;;
2023/02/25 00:08:15;;;;;;;1;0.6;;;;;;;5.04;90.79883;923.7955;;;;
2023/02/25 00:10:40;;;;;;;0.7;0.6;;;;;;;4.81;90.81836;923.8409;;;;
2023/02/25 00:13:13;;;;;;;0.6;0.6;;;;;;;4.61;92.19531;924.0291;;;;
2023/02/25 00:15:40;;;;;;;0.7;0.5;;;;;;;4.57;91.81543;924.1066;;;;
2023/02/25 00:18:04;;;;;;;0.3;0.3;;;;;;;4.6;92.18164;924.1714;;;;
2023/02/25 00:20:33;;;;;;;0.5;0.2;;;;;;;4.52;91.90527;923.9769;;;;
2023/02/25 00:22:59;;;;;;;0.4;0.2;;;;;;;4.42;92.3457;924.1108;;;;
2023/02/25 00:25:27;;;;;;;0.4;0.3;;;;;;;4.54;93.04688;924.0684;;;;
2023/02/25 00:27:49;;;;;;;0.2;0.2;;;;;;;4.71;92.55469;924.0764;;;;
2023/02/25 00:30:22;;;;;;;0.2;0.1;;;;;;;4.8;91.44727;924.1781;;;;
2023/02/25 00:32:47;;;;;;;0.2;0.2;;;;;;;4.77;91.62207;924.2347;;;;
2023/02/25 00:35:14;;;;;;;0.1;0.1;;;;;;;4.77;91.79102;924.3569;;;;
2023/02/25 00:37:50;;;;;;;0.4;0.1;;;;;;;4.83;91.92676;924.7881;;;;
2023/02/25 00:40:33;;;;;;;0.2;0.1;;;;;;;4.78;92.5791;924.7527;;;;
2023/02/25 00:42:58;;;;;;;0.6;0.3;;;;;;;4.97;91.55371;924.6033;;;;
2023/02/25 00:46:28;;;;;;;0.1;0.1;;;;;;;4.95;91.08594;924.5865;;;;
2023/02/25 00:48:57;;;;;;;0.2;0.2;;;;;;;4.95;92.6748;924.7182;;;;
2023/02/25 00:51:22;;;;;;;0.2;0.2;;;;;;;4.96;93.21582;924.9288;;;;
2023/02/25 00:53:48;;;;;;;0.1;0.1;;;;;;;4.73;92.88477;924.9171;;;;
2023/02/25 00:56:14;;;;;;;0.2;0.1;;;;;;;4.75;92.94727;924.9109;;;;
2023/02/25 00:58:38;;;;;;;1.8;1.1;;;;;;;4.73;92.56934;924.9533;;;;
2023/02/25 01:04:35;;;;;;;0.3;0.3;;;;;;;4.44;93.39844;925.0637;;;;
2023/02/25 01:07:00;;;;;;;0.3;0.2;;;;;;;4.35;93.89648;925.09;;;;
2023/02/25 01:09:27;;;;;;;0.2;0.2;;;;;;;4.24;93.76953;925.0226;;;;
2023/02/25 01:11:52;;;;;;;0.2;0.2;;;;;;;4.24;93.17285;924.9476;;;;
2023/02/25 01:14:18;;;;;;;0.2;0.2;;;;;;;4.26;93.60645;924.9055;;;;
2023/02/25 01:16:44;;;;;;;0.1;0.1;;;;;;;4.51;93.70313;924.8539;;;;
2023/02/25 01:19:14;;;;;;;0.6;0.1;;;;;;;4.61;93.23145;924.7756;;;;
2023/02/25 01:21:39;;;;;;;0.2;0.2;;;;;;;4.63;92.60254;924.7553;;;;
2023/02/25 01:24:04;;;;;;;0.2;0.2;;;;;;;4.62;93.08691;924.7403;;;;
2023/02/25 01:26:32;;;;;;;0.1;0.1;;;;;;;4.34;92.50781;924.7527;;;;
2023/02/25 01:28:57;;;;;;;0.2;0.2;;;;;;;4.2;92.81641;924.6713;;;;
2023/02/25 01:31:27;;;;;;;0.3;0.2;;;;;;;4.08;93.81445;924.7109;;;;
2023/02/25 01:33:48;;;;;;;0.2;0.2;;;;;;;4.26;93.16699;924.6754;;;;
2023/02/25 01:36:15;;;;;;;1.2;0.2;;;;;;;4.25;93.70313;924.7548;;;;
2023/02/25 01:38:40;;;;;;;0.1;0.1;;;;;;;4.07;93.68848;924.8361;;;;
2023/02/25 01:41:08;;;;;;;0.1;0.1;;;;;;;4.03;93.91211;924.778;;;;
2023/02/25 01:43:33;;;;;;;0.1;0.1;;;;;;;4.1;93.59277;924.7561;;;;
2023/02/25 01:46:02;;;;;;;0.1;0.1;;;;;;;4.39;93.36426;924.7855;;;;
2023/02/25 01:48:32;;;;;;;0.1;0.1;;;;;;;4.54;92.32617;924.8014;;;;
2023/02/25 01:51:04;;;;;;;0.5;0.2;;;;;;;4.53;91.51563;924.8172;;;;
2023/02/25 01:53:30;;;;;;;0.2;0.2;;;;;;;4.54;90.85254;924.963;;;;
2023/02/25 01:55:56;;;;;;;0.1;0.1;;;;;;;4.54;90.73828;924.8802;;;;
2023/02/25 01:58:28;;;;;;;0.2;0.2;;;;;;;4.65;90.36719;924.8122;;;;
2023/02/25 02:00:54;;;;;;;0.3;0.2;;;;;;;4.64;89.50977;924.8847;;;;
2023/02/25 02:03:18;;;;;;;0.2;0.2;;;;;;;4.55;89.07422;924.952;;;;
2023/02/25 02:05:43;;;;;;;0.1;0.1;;;;;;;4.38;89.62305;924.8027;;;;
2023/02/25 02:08:13;;;;;;;0.2;0.2;;;;;;;4.21;89.49902;924.407;;;;
2023/02/25 02:10:38;;;;;;;0.2;0.2;;;;;;;4.16;89.68066;924.4573;;;;
2023/02/25 02:13:06;;;;;;;0.1;0.1;;;;;;;4.11;89.4668;924.616;;;;
2023/02/25 02:15:32;;;;;;;0.1;0.1;;;;;;;4.13;89.90918;924.6476;;;;
2023/02/25 02:18:01;;;;;;;0.5;0.2;;;;;;;4.23;89.78223;924.8301;;;;
2023/02/25 02:20:30;;;;;;;0.2;0.2;;;;;;;4.26;88.83301;924.8313;;;;
2023/02/25 02:23:02;;;;;;;0.2;0.2;;;;;;;4.16;89.64551;924.7668;;;;
2023/02/25 02:25:56;;;;;;;0.3;0.3;;;;;;;4.28;89.64746;924.8;;;;
2023/02/25 02:28:23;;;;;;;0.2;0.2;;;;;;;4.31;88.99121;924.8611;;;;
2023/02/25 02:30:49;;;;;;;0.4;0.1;;;;;;;4.23;89.42188;924.9105;;;;
2023/02/25 02:33:14;;;;;;;0.2;0.2;;;;;;;4.21;88.85742;924.9009;;;;
2023/02/25 02:35:43;;;;;;;0.2;0.2;;;;;;;4.08;89.49316;924.8077;;;;
2023/02/25 02:38:15;;;;;;;0.2;0.2;;;;;;;4.07;89.2998;924.7202;;;;
2023/02/25 02:40:42;;;;;;;1;1;;;;;;;4.09;89.68652;924.6984;;;;
2023/02/25 02:43:11;;;;;;;0.7;0.7;;;;;;;4.01;90.49219;924.6526;;;;
2023/02/25 02:45:36;;;;;;;0.3;0.3;;;;;;;4.04;90.73438;924.6356;;;;
2023/02/25 02:52:06;;;;;;;0.3;0.3;;;;;;;3.7;90.47168;925.0174;;;;
2023/02/25 02:55:58;;;;;;;0.9;0.5;;;;;;;3.62;91.3291;924.9833;;;;
2023/02/25 02:58:21;;;;;;;1.4;1.4;;;;;;;3.72;91.49609;924.9767;;;;
2023/02/25 03:00:46;;;;;;;0.3;0.3;;;;;;;3.73;91.03906;924.9359;;;;
2023/02/25 03:03:16;;;;;;;0.2;0.2;;;;;;;3.58;91.29883;924.9894;;;;
2023/02/25 03:05:41;;;;;;;0.3;0.3;;;;;;;3.42;92.01758;925.0636;;;;
2023/02/25 03:08:06;;;;;;;0.2;0.2;;;;;;;3.29;91.80762;925.1203;;;;
2023/02/25 03:10:31;;;;;;;0.2;0.2;;;;;;;3.17;92.17676;925.2489;;;;
2023/02/25 03:12:56;;;;;;;0.5;0.3;;;;;;;2.96;92.98438;925.1266;;;;
2023/02/25 03:15:28;;;;;;;0.3;0.3;;;;;;;3.04;93.11426;925.0935;;;;
2023/02/25 03:17:52;;;;;;;0.2;0.2;;;;;;;2.98;93.12109;925.1133;;;;
2023/02/25 03:20:18;;;;;;;0.5;0.5;;;;;;;3;93.38281;925.1255;;;;
2023/02/25 03:22:47;;;;;;;0.3;0.3;;;;;;;2.77;94.33105;925.1774;;;;
2023/02/25 03:25:13;;;;;;;0.3;0.3;;;;;;;2.79;94.37988;925.125;;;;
2023/02/25 03:27:44;;;;;;;0.2;0.2;;;;;;;2.87;93.99414;925.2107;;;;
2023/02/25 03:30:11;;;;;;;0.4;0.4;;;;;;;2.74;94.48242;925.1077;;;;
2023/02/25 03:32:34;;;;;;;0.3;0.3;;;;;;;2.71;94.59961;925.115;;;;
2023/02/25 03:35:04;;;;;;;0.3;0.3;;;;;;;2.84;94.62695;925.1725;;;;
2023/02/25 03:37:29;;;;;;;0.4;0.4;;;;;;;2.83;94.45703;925.3052;;;;
2023/02/25 03:39:55;;;;;;;0.3;0.3;;;;;;;2.89;94.26953;925.329;;;;
2023/02/25 03:42:19;;;;;;;0.2;0.2;;;;;;;2.92;94.26367;925.3436;;;;
2023/02/25 03:44:45;;;;;;;0.2;0.2;;;;;;;2.88;93.79395;925.2109;;;;
2023/02/25 03:47:10;;;;;;;0.3;0.3;;;;;;;2.79;94.09961;925.0306;;;;
2023/02/25 03:49:35;;;;;;;0.3;0.3;;;;;;;2.72;94.89063;925.1992;;;;
2023/02/25 03:52:23;;;;;;;0.4;0.4;;;;;;;2.77;95.13867;925.2245;;;;
2023/02/25 03:55:23;;;;;;;0.4;0.4;;;;;;;2.62;95.8125;925.295;;;;
2023/02/25 03:57:48;;;;;;;0.8;0.8;;;;;;;2.54;96.33203;925.4016;;;;
2023/02/25 04:00:18;;;;;;;1.1;1;;;;;;;2.55;96.37891;925.2698;;;;
2023/02/25 04:03:00;;;;;;;0.9;0.9;;;;;;;2.66;95.89844;925.3222;;;;
2023/02/25 04:05:27;;;;;;;1;0.9;;;;;;;2.67;95.99219;925.5128;;;;
2023/02/25 04:07:51;;;;;;;0.8;0.8;;;;;;;2.73;95.58105;925.4447;;;;
2023/02/25 04:10:19;;;;;;;1.1;1;;;;;;;2.67;95.53125;925.4938;;;;
2023/02/25 04:12:46;;;;;;;0.7;0.7;;;;;;;2.67;95.7793;925.5787;;;;
2023/02/25 04:15:12;;;;;;;0.6;0.6;;;;;;;2.72;95.67578;925.457;;;;
2023/02/25 04:17:41;;;;;;;0.5;0.5;;;;;;;2.67;95.65234;925.5511;;;;
2023/02/25 04:20:16;;;;;;;0.5;0.5;;;;;;;2.81;95.48438;925.5555;;;;
2023/02/25 04:22:40;;;;;;;0.6;0.6;;;;;;;2.75;95.07813;925.6909;;;;
2023/02/25 04:25:15;;;;;;;0.7;0.7;;;;;;;2.77;95.27246;925.6283;;;;
2023/02/25 04:27:44;;;;;;;0.9;0.9;;;;;;;2.65;95.7959;925.6884;;;;
2023/02/25 04:30:10;;;;;;;0.8;0.6;;;;;;;2.67;96.00391;925.6573;;;;
2023/02/25 04:32:56;;;;;;;0.7;0.7;;;;;;;2.78;95.66699;925.6733;;;;
2023/02/25 04:35:25;;;;;;;0.9;0.6;;;;;;;2.71;95.875;925.709;;;;
2023/02/25 04:37:50;;;;;;;0.6;0.6;;;;;;;2.78;95.59082;925.6671;;;;
2023/02/25 04:40:17;;;;;;;0.8;0.7;;;;;;;2.82;95.04785;925.628;;;;
2023/02/25 04:43:20;;;;;;;0.7;0.7;;;;;;;2.78;94.88477;925.5406;;;;
2023/02/25 04:45:49;;;;;;;0.6;0.6;;;;;;;2.72;95.00488;925.6967;;;;
2023/02/25 04:48:14;;;;;;;0.4;0.4;;;;;;;2.77;94.98145;925.8161;;;;
2023/02/25 04:51:04;;;;;;;0.5;0.5;;;;;;;2.78;94.79492;925.8691;;;;
2023/02/25 04:53:32;;;;;;;0.4;0.4;;;;;;;2.72;94.77832;925.8994;;;;
2023/02/25 04:55:57;;;;;;;0.3;0.3;;;;;;;2.59;95.2998;925.9995;;;;
2023/02/25 04:58:23;;;;;;;0.4;0.4;;;;;;;2.71;95.1709;926.0037;;;;
2023/02/25 05:00:48;;;;;;;0.4;0.4;;;;;;;2.53;95.39941;925.9954;;;;
2023/02/25 05:03:13;;;;;;;0.4;0.4;;;;;;;2.44;96.15039;926.0203;;;;
2023/02/25 05:05:41;;;;;;;0.4;0.4;;;;;;;2.58;96.09375;925.9751;;;;
2023/02/25 05:08:06;;;;;;;0.5;0.5;;;;;;;2.51;96.12207;925.9753;;;;
2023/02/25 05:10:36;;;;;;;0.3;0.3;;;;;;;2.62;96.02539;925.9958;;;;
2023/02/25 05:13:06;;;;;;;0.3;0.3;;;;;;;2.63;95.52051;925.9716;;;;
2023/02/25 05:15:31;;;;;;;0.5;0.5;;;;;;;2.41;96.09961;926.0598;;;;
2023/02/25 05:17:56;;;;;;;0.4;0.4;;;;;;;2.48;96.64258;925.9669;;;;
2023/02/25 05:20:27;;;;;;;5;3.9;;;;;;;2.44;96.92285;925.9645;;;;
2023/02/25 05:22:52;;;;;;;12.5;9.8;;;;;;;2.41;96.64844;926.0229;;;;
2023/02/25 05:25:18;;;;;;;3.8;3.5;;;;;;;2.49;97.09277;925.9662;;;;
2023/02/25 05:27:46;;;;;;;1.4;1.3;;;;;;;2.6;96.38867;926.1192;;;;
2023/02/25 05:30:21;;;;;;;1;0.8;;;;;;;2.52;96.42676;926.0972;;;;
2023/02/25 05:32:50;;;;;;;0.7;0.6;;;;;;;2.49;96.54395;925.9803;;;;
2023/02/25 05:35:18;;;;;;;0.7;0.7;;;;;;;2.58;96.59961;925.972;;;;
2023/02/25 05:37:53;;;;;;;0.8;0.8;;;;;;;2.51;96.44922;926.0414;;;;
2023/02/25 05:40:44;;;;;;;0.5;0.5;;;;;;;2.68;96.20508;925.9356;;;;
2023/02/25 05:43:16;;;;;;;0.4;0.4;;;;;;;2.71;95.47363;926.0147;;;;
2023/02/25 05:45:47;;;;;;;0.3;0.2;;;;;;;2.82;95.18164;926.1191;;;;
2023/02/25 05:48:12;;;;;;;0.5;0.5;;;;;;;2.95;94.62891;926.1467;;;;
2023/02/25 05:50:43;;;;;;;0.5;0.5;;;;;;;2.85;94.09277;926.075;;;;
2023/02/25 05:53:15;;;;;;;0.3;0.3;;;;;;;2.91;93.88086;926.1115;;;;
2023/02/25 05:55:40;;;;;;;0.4;0.4;;;;;;;3.05;93.55176;926.041;;;;
2023/02/25 05:58:05;;;;;;;0.3;0.3;;;;;;;3.12;92.79297;926.1516;;;;
2023/02/25 06:01:26;;;;;;;0.4;0.4;;;;;;;3.23;92.43555;926.0524;;;;
2023/02/25 06:03:50;;;;;;;0.9;0.3;;;;;;;2.94;92.75391;926.1127;;;;
2023/02/25 06:06:19;;;;;;;0.2;0.2;;;;;;;3.08;92.44922;926.1785;;;;
2023/02/25 06:08:44;;;;;;;0.2;0.2;;;;;;;3.12;92.41211;926.088;;;;
2023/02/25 06:11:13;;;;;;;0.4;0.3;;;;;;;3.12;92.24316;926.1563;;;;
2023/02/25 06:13:35;;;;;;;0.3;0.3;;;;;;;3.21;92.13965;926.2258;;;;
2023/02/25 06:16:05;;;;;;;0.2;0.2;;;;;;;3.29;91.70996;926.1738;;;;
2023/02/25 06:21:09;;;;;;;0.4;0.3;;;;;;;3.1;91.71191;926.2307;;;;
2023/02/25 06:23:38;;;;;;;2;0.4;;;;;;;3.02;92.05371;926.3142;;;;
2023/02/25 06:26:04;;;;;;;0.3;0.3;;;;;;;3.1;92.28223;926.4036;;;;
2023/02/25 06:28:31;;;;;;;0.6;0.6;;;;;;;2.99;92.58594;926.363;;;;
2023/02/25 06:30:56;;;;;;;0.6;0.6;;;;;;;3.07;92.81543;926.4244;;;;
2023/02/25 06:33:29;;;;;;;0.8;0.8;;;;;;;3.12;92.63574;926.4692;;;;
2023/02/25 06:35:54;;;;;;;1.6;1.5;;;;;;;3.18;92.25684;926.4059;;;;
2023/02/25 06:38:19;;;;;;;0.8;0.7;;;;;;;3.22;91.90625;926.3273;;;;
2023/02/25 06:41:07;;;;;;;0.9;0.9;;;;;;;3.27;91.99609;926.3848;;;;
2023/02/25 06:43:33;;;;;;;0.8;0.8;;;;;;;3.38;91.35742;926.4261;;;;
2023/02/25 06:45:58;;;;;;;1.8;1.6;;;;;;;3.34;91.13379;926.4089;;;;
2023/02/25 06:48:23;;;;;;;1.7;1;;;;;;;3.4;90.93457;926.4689;;;;
2023/02/25 06:50:53;;;;;;;1.2;1;;;;;;;3.48;90.54688;926.425;;;;
2023/02/25 06:53:18;;;;;;;1;0.9;;;;;;;3.39;90.43652;926.4395;;;;
2023/02/25 06:55:47;;;;;;;1.8;1.3;;;;;;;3.26;90.47656;926.4916;;;;
2023/02/25 06:58:12;;;;;;;0.9;0.9;;;;;;;3.32;90.92969;926.5006;;;;
2023/02/25 07:00:42;;;;;;;1.3;1.2;;;;;;;3.32;90.78418;926.5871;;;;
2023/02/25 07:03:13;;;;;;;1.1;1;;;;;;;3.29;91.10352;926.5717;;;;
2023/02/25 07:05:38;;;;;;;1.1;1;;;;;;;3.4;90.91211;926.5751;;;;
2023/02/25 07:08:07;;;;;;;1.7;0.9;;;;;;;3.47;90.54688;926.6089;;;;
2023/02/25 07:10:32;;;;;;;1;1;;;;;;;3.46;90.6084;926.5284;;;;
2023/02/25 07:13:00;;;;;;;0.9;0.9;;;;;;;3.43;90.1875;926.5334;;;;
2023/02/25 07:15:25;;;;;;;1.1;1;;;;;;;3.53;90.1416;926.502;;;;
2023/02/25 07:17:50;;;;;;;1.3;1.2;;;;;;;3.45;90.27148;926.4764;;;;
2023/02/25 07:20:22;;;;;;;2;1.3;;;;;;;3.39;90.26953;926.4396;;;;
2023/02/25 07:22:54;;;;;;;1.6;1.5;;;;;;;3.34;90.29395;926.4836;;;;
2023/02/25 07:25:24;;;;;;;3;1.8;;;;;;;3.27;91.24414;926.4958;;;;
2023/02/25 07:27:55;;;;;;;4.2;3.7;;;;;;;3.31;91.04004;926.41;;;;
2023/02/25 07:30:20;;;;;;;3.9;2.4;;;;;;;3.44;91.46094;926.4313;;;;
2023/02/25 07:32:48;;;;;;;1.8;1.6;;;;;;;3.57;91.37305;926.4734;;;;
2023/02/25 07:35:13;;;;;;;1.4;1.3;;;;;;;3.65;90.9541;926.4523;;;;
2023/02/25 07:37:43;;;;;;;2.5;2;;;;;;;3.66;89.93359;926.4667;;;;
2023/02/25 07:40:15;;;;;;;2.7;2;;;;;;;3.74;89.74902;926.4387;;;;
2023/02/25 07:42:44;;;;;;;2.1;1.9;;;;;;;3.72;89.9248;926.3975;;;;
2023/02/25 07:45:09;;;;;;;2.4;2.2;;;;;;;3.87;89.91016;926.437;;;;
2023/02/25 07:47:39;;;;;;;1.9;1.7;;;;;;;3.83;88.97949;926.4774;;;;
2023/02/25 07:56:11;;;;;;;1.9;1.6;;;;;;;3.65;90.12305;926.5184;;;;
2023/02/25 07:58:31;;;;;;;1.7;1.6;;;;;;;3.75;89.08984;926.4453;;;;
2023/02/25 08:00:58;;;;;;;1.6;1.5;;;;;;;3.86;88.7168;926.3762;;;;
2023/02/25 08:03:25;;;;;;;1.7;1.2;;;;;;;3.88;87.91309;926.3349;;;;
2023/02/25 08:05:51;;;;;;;1.5;1.4;;;;;;;3.83;88.23926;926.1436;;;;
2023/02/25 08:08:16;;;;;;;3.5;2;;;;;;;3.92;88.07617;926.1355;;;;
2023/02/25 08:10:42;;;;;;;5;1.9;;;;;;;3.86;88.55957;926.2644;;;;
2023/02/25 08:13:06;;;;;;;2.4;1.6;;;;;;;3.69;89.27637;926.1908;;;;
2023/02/25 08:15:37;;;;;;;2;1.6;;;;;;;3.74;89.19629;926.2364;;;;
2023/02/25 08:18:07;;;;;;;1.6;1.5;;;;;;;3.88;88.36328;926.2333;;;;
2023/02/25 08:20:32;;;;;;;2.2;1.5;;;;;;;4.03;87.97656;926.1586;;;;
2023/02/25 08:22:59;;;;;;;2;1.5;;;;;;;4.05;87.75586;926.2164;;;;
2023/02/25 08:25:24;;;;;;;2.4;1.7;;;;;;;4;88.02539;926.1499;;;;
2023/02/25 08:27:53;;;;;;;1.9;1.6;;;;;;;4.07;87.45508;926.1197;;;;
2023/02/25 08:30:19;;;;;;;1.5;1.4;;;;;;;4.19;87.08594;926.0614;;;;
2023/02/25 08:32:46;;;;;;;2.5;1.6;;;;;;;4.28;86.89258;926.0575;;;;
2023/02/25 08:35:12;;;;;;;1.8;1.7;;;;;;;4.37;86.875;926.0238;;;;
2023/02/25 08:37:43;;;;;;;2.2;1.7;;;;;;;4.32;86.17969;925.9437;;;;
2023/02/25 08:40:16;;;;;;;1.7;1.6;;;;;;;4.35;85.84961;925.9347;;;;
2023/02/25 08:42:45;;;;;;;2.1;1.9;;;;;;;4.32;85.96582;925.9075;;;;
2023/02/25 08:45:19;;;;;;;2.5;1.7;;;;;;;4.45;85.7998;925.9164;;;;
2023/02/25 08:47:43;;;;;;;1.9;1.7;;;;;;;4.49;84.95313;925.9728;;;;
2023/02/25 08:50:16;;;;;;;2.4;2.2;;;;;;;4.37;85.18848;925.9885;;;;
2023/02/25 08:52:41;;;;;;;2.2;1.9;;;;;;;4.38;85.35938;926.0264;;;;
2023/02/25 08:55:13;;;;;;;3.5;2.2;;;;;;;4.37;84.79297;925.9963;;;;
2023/02/25 08:57:37;;;;;;;2.3;2.1;;;;;;;4.37;85.1416;925.9963;;;;
2023/02/25 09:00:05;;;;;;;2.3;2.1;;;;;;;4.43;84.79395;925.9997;;;;
2023/02/25 09:02:34;;;;;;;3.3;2.3;;;;;;;4.47;84.58789;925.9852;;;;
2023/02/25 09:04:59;;;;;;;3.6;2.7;;;;;;;4.51;85.5332;925.944;;;;
2023/02/25 09:07:32;;;;;;;5.7;4.3;;;;;;;4.51;85.9043;925.9944;;;;
2023/02/25 09:10:02;;;;;;;2.8;2.5;;;;;;;4.36;85.76074;925.867;;;;
2023/02/25 09:12:27;;;;;;;10;8;;;;;;;4.4;85.75684;925.802;;;;
2023/02/25 09:14:52;;;;;;;9.6;5.6;;;;;;;4.33;86.30469;925.8525;;;;
2023/02/25 09:17:24;;;;;;;3.9;2.9;;;;;;;4.4;86.74707;925.9266;;;;
2023/02/25 09:19:52;;;;;;;2.6;2.4;;;;;;;4.08;86.71484;925.9158;;;;
2023/02/25 09:22:22;;;;;;;3.1;2.4;;;;;;;4;88.36328;925.9003;;;;
2023/02/25 09:24:47;;;;;;;5.8;4.6;;;;;;;3.85;88.88379;925.9282;;;;
2023/02/25 09:27:12;;;;;;;6.3;5.1;;;;;;;4.12;88.57813;925.8889;;;;
2023/02/25 09:29:41;;;;;;;6.5;4.5;;;;;;;4.41;88.39258;925.9191;;;;
2023/02/25 09:32:06;;;;;;;6.4;3.9;;;;;;;4.36;87.65137;925.9238;;;;
2023/02/25 09:34:32;;;;;;;6.9;3.8;;;;;;;4.45;88.08496;925.8834;;;;
2023/02/25 09:36:57;;;;;;;6.1;3.2;;;;;;;4.58;86.96289;925.8099;;;;
2023/02/25 09:39:22;;;;;;;3;2.2;;;;;;;4.69;84.96875;925.7949;;;;
2023/02/25 09:41:53;;;;;;;3;2.7;;;;;;;4.5;84.60645;925.8146;;;;
2023/02/25 09:44:19;;;;;;;4;3.1;;;;;;;4.86;85.17188;925.8167;;;;
2023/02/25 09:46:49;;;;;;;4.2;2.9;;;;;;;4.97;83.93262;925.8391;;;;
2023/02/25 09:49:14;;;;;;;2.9;2.6;;;;;;;5.18;83.20898;925.8904;;;;
2023/02/25 09:51:41;;;;;;;3.3;2.6;;;;;;;5.21;81.97168;925.9683;;;;
2023/02/25 09:54:06;;;;;;;3.7;2.4;;;;;;;5.39;81.67969;925.9911;;;;
2023/02/25 09:56:36;;;;;;;3.3;2.8;;;;;;;5.02;81.5293;925.8115;;;;
2023/02/25 09:59:01;;;;;;;4.4;3.3;;;;;;;5.11;81.71582;925.9078;;;;
2023/02/25 10:01:33;;;;;;;3.3;3;;;;;;;5.02;80.85449;925.9345;;;;
2023/02/25 10:03:56;;;;;;;4.2;3.3;;;;;;;4.98;81.72559;925.9347;;;;
2023/02/25 10:06:22;;;;;;;5.2;3.1;;;;;;;4.74;80.16895;925.7473;;;;
2023/02/25 10:08:47;;;;;;;14.7;9.7;;;;;;;4.67;82.0498;925.7553;;;;
2023/02/25 10:11:13;;;;;;;10.4;8.3;;;;;;;4.71;82.50684;925.8503;;;;
2023/02/25 10:13:39;;;;;;;6;5.2;;;;;;;4.53;82.88672;925.8992;;;;
2023/02/25 10:16:05;;;;;;;5.9;3.5;;;;;;;4.73;82.85059;925.875;;;;
2023/02/25 10:18:34;;;;;;;4.3;3.4;;;;;;;4.86;83.00879;925.8396;;;;
2023/02/25 10:21:01;;;;;;;4.9;4.4;;;;;;;4.62;82.69238;925.8572;;;;
2023/02/25 10:23:26;;;;;;;4.6;4.1;;;;;;;4.77;82.54199;925.8084;;;;
2023/02/25 10:25:54;;;;;;;3.2;2.9;;;;;;;4.66;81.51855;925.7994;;;;
2023/02/25 10:28:19;;;;;;;3.5;3.2;;;;;;;4.67;82.70313;925.7576;;;;
2023/02/25 10:30:47;;;;;;;4.6;3.4;;;;;;;4.64;82.21387;925.6919;;;;
2023/02/25 10:33:13;;;;;;;4;3.6;;;;;;;4.23;83.33691;925.8472;;;;
2023/02/25 10:35:38;;;;;;;5.9;4.1;;;;;;;4.23;84.19434;925.8536;;;;
2023/02/25 10:38:03;;;;;;;5.4;4.6;;;;;;;4.26;84.1543;925.8445;;;;
2023/02/25 10:40:31;;;;;;;5.8;4.7;;;;;;;4.07;84.54102;925.8008;;;;
2023/02/25 10:42:56;;;;;;;5.2;4.4;;;;;;;3.81;86.10938;925.7347;;;;
2023/02/25 10:45:26;;;;;;;7.3;4.8;;;;;;;3.72;86.09277;925.8945;;;;
2023/02/25 10:47:57;;;;;;;8.8;5;;;;;;;3.65;86.34766;925.7597;;;;
2023/02/25 10:50:24;;;;;;;6.8;4.7;;;;;;;3.4;85.84766;925.8065;;;;
2023/02/25 10:52:49;;;;;;;6.1;4.2;;;;;;;3.38;87.22461;925.8912;;;;
2023/02/25 10:55:34;;;;;;;6.6;4.1;;;;;;;3.44;87.31641;925.8459;;;;
2023/02/25 10:57:59;;;;;;;7.9;4.1;;;;;;;3.45;86.78906;925.8524;;;;
2023/02/25 11:00:24;;;;;;;5.4;3.9;;;;;;;3.57;86.06152;925.7693;;;;
2023/02/25 11:02:49;;;;;;;5.1;3.5;;;;;;;3.63;86.0498;925.7902;;;;
2023/02/25 11:05:19;;;;;;;4.6;3.5;;;;;;;3.55;85.6875;925.7799;;;;
2023/02/25 11:07:46;;;;;;;5.1;3.6;;;;;;;3.65;85.60645;925.7447;;;;
2023/02/25 11:10:17;;;;;;;5.9;3.9;;;;;;;3.53;85.08691;925.7073;;;;
2023/02/25 11:12:42;;;;;;;6;3.9;;;;;;;3.61;86.04688;925.741;;;;
2023/02/25 11:15:07;;;;;;;5.1;3.8;;;;;;;3.56;85.56543;925.6959;;;;
2023/02/25 11:17:38;;;;;;;4.9;3.4;;;;;;;3.61;85.63086;925.704;;;;
2023/02/25 11:20:08;;;;;;;5.3;3.7;;;;;;;3.73;84.66602;925.7482;;;;
2023/02/25 11:22:32;;;;;;;4.6;3.1;;;;;;;3.52;84.42188;925.7511;;;;
2023/02/25 11:25:01;;;;;;;5.6;3.9;;;;;;;3.44;85.55176;925.6531;;;;
2023/02/25 11:27:26;;;;;;;6.1;3.6;;;;;;;3.62;85.19629;925.5563;;;;
2023/02/25 11:29:51;;;;;;;4.2;3.4;;;;;;;3.62;85.14941;925.5569;;;;
2023/02/25 11:32:16;;;;;;;5;3.2;;;;;;;3.7;84.23535;925.6006;;;;
2023/02/25 11:34:44;;;;;;;5.7;3;;;;;;;3.65;83.44922;925.5338;;;;
2023/02/25 11:37:11;;;;;;;4.6;3.1;;;;;;;3.61;83.8125;925.5813;;;;
2023/02/25 11:39:40;;;;;;;3.9;3;;;;;;;3.79;83.39648;925.5775;;;;
2023/02/25 11:42:06;;;;;;;5;3.2;;;;;;;3.77;83.07813;925.5883;;;;
2023/02/25 11:44:31;;;;;;;5.7;2.9;;;;;;;3.64;82.95313;925.5471;;;;
2023/02/25 11:46:57;;;;;;;5.9;3;;;;;;;3.56;82.62109;925.6069;;;;
2023/02/25 11:49:22;;;;;;;8.5;2.9;;;;;;;3.65;83.21289;925.5662;;;;
2023/02/25 11:51:47;;;;;;;4.4;2.9;;;;;;;3.76;82.29004;925.4441;;;;
2023/02/25 11:54:13;;;;;;;6.3;3.4;;;;;;;3.52;82.62695;925.438;;;;
2023/02/25 11:56:38;;;;;;;4.6;3;;;;;;;3.74;82.53223;925.4902;;;;
2023/02/25 11:59:05;;;;;;;4.5;2.8;;;;;;;3.86;81.54492;925.4481;;;;
2023/02/25 12:01:29;;;;;;;3.9;3.1;;;;;;;3.59;81.99902;925.4233;;;;
2023/02/25 12:03:54;;;;;;;4.8;2.9;;;;;;;3.38;82.81152;925.4702;;;;
2023/02/25 12:06:25;;;;;;;5.6;3.4;;;;;;;3.4;83.14063;925.4274;;;;
2023/02/25 12:08:50;;;;;;;5.4;2.8;;;;;;;3.43;83.46094;925.3557;;;;
2023/02/25 12:11:15;;;;;;;4;2.8;;;;;;;3.65;82.88672;925.2906;;;;
2023/02/25 12:14:06;;;;;;;4.3;3;;;;;;;3.74;81.58984;925.2565;;;;
2023/02/25 12:16:32;;;;;;;4.6;2.4;;;;;;;3.77;81.52539;925.2292;;;;
2023/02/25 12:19:04;;;;;;;3.7;2.7;;;;;;;3.94;80.99805;925.2499;;;;
2023/02/25 12:21:28;;;;;;;5.4;3;;;;;;;3.8;80.99316;925.1919;;;;
2023/02/25 12:23:57;;;;;;;4.1;2.8;;;;;;;3.51;82.0166;925.1735;;;;
2023/02/25 12:26:22;;;;;;;3.5;2.5;;;;;;;3.7;81.62793;925.1883;;;;
2023/02/25 12:28:49;;;;;;;3.4;2.4;;;;;;;3.72;81.49512;925.1617;;;;
2023/02/25 12:31:15;;;;;;;4.4;3.1;;;;;;;3.48;81.69727;925.2037;;;;
2023/02/25 12:33:42;;;;;;;3.9;2.9;;;;;;;3.6;82.28125;925.2227;;;;
2023/02/25 12:36:08;;;;;;;4;3;;;;;;;3.69;81.77051;925.2943;;;;
2023/02/25 12:38:33;;;;;;;4.1;3;;;;;;;3.73;82.08301;925.2185;;;;
2023/02/25 12:41:04;;;;;;;4.6;3.2;;;;;;;3.73;81.72168;925.3169;;;;
2023/02/25 12:43:29;;;;;;;6.3;3.2;;;;;;;3.64;81.78223;925.3275;;;;
2023/02/25 12:45:56;;;;;;;4.9;3.4;;;;;;;3.48;82.82031;925.3477;;;;
2023/02/25 12:48:21;;;;;;;5.1;3;;;;;;;3.34;82.86133;925.3997;;;;
2023/02/25 12:50:49;;;;;;;6.2;3.6;;;;;;;3.14;83.22656;925.4481;;;;
2023/02/25 12:53:15;;;;;;;4.9;3.4;;;;;;;3.18;83.77051;925.3685;;;;
2023/02/25 12:55:40;;;;;;;5.4;3.2;;;;;;;3.04;84.14746;925.3937;;;;
2023/02/25 12:58:05;;;;;;;4.7;3;;;;;;;3.1;84.40723;925.4066;;;;
2023/02/25 13:00:32;;;;;;;4.3;3.4;;;;;;;3.17;84.16309;925.5438;;;;
2023/02/25 13:02:57;;;;;;;3.8;2.9;;;;;;;3.09;84.54004;925.485;;;;
2023/02/25 13:05:24;;;;;;;4.5;3.1;;;;;;;3.03;85.03223;925.5619;;;;
2023/02/25 13:07:49;;;;;;;4.4;3.1;;;;;;;2.97;84.75;925.6102;;;;
2023/02/25 13:10:14;;;;;;;4.2;3;;;;;;;2.83;85.31738;925.5818;;;;
2023/02/25 13:12:43;;;;;;;5.6;3.5;;;;;;;2.83;85.62012;925.5574;;;;
2023/02/25 13:15:15;;;;;;;5.5;3.2;;;;;;;3.05;85.61914;925.5308;;;;
2023/02/25 13:17:41;;;;;;;6;3.1;;;;;;;3.15;84.83301;925.5286;;;;
2023/02/25 13:20:10;;;;;;;4.6;3.1;;;;;;;3.09;84.49512;925.452;;;;
2023/02/25 13:22:37;;;;;;;4.7;3;;;;;;;2.93;84.71875;925.6047;;;;
2023/02/25 13:25:02;;;;;;;5.4;3.2;;;;;;;2.98;85.37988;925.63;;;;
2023/02/25 13:27:35;;;;;;;4.7;3.2;;;;;;;3.01;84.62305;925.663;;;;
2023/02/25 13:30:00;;;;;;;4;3.1;;;;;;;3.02;84.61523;925.6379;;;;
2023/02/25 13:32:28;;;;;;;4.3;2.7;;;;;;;3.08;84.3252;925.6627;;;;
2023/02/25 13:34:53;;;;;;;3.5;2.5;;;;;;;2.88;84.93555;925.604;;;;
2023/02/25 13:37:20;;;;;;;4.7;3.1;;;;;;;3;84.8457;925.6498;;;;
2023/02/25 13:39:50;;;;;;;3.7;2.6;;;;;;;2.93;85.00098;925.6574;;;;
2023/02/25 13:42:15;;;;;;;4.7;2.5;;;;;;;2.89;85.20703;925.7439;;;;
2023/02/25 13:44:40;;;;;;;3.9;2.9;;;;;;;3.03;85.06543;925.7679;;;;
2023/02/25 13:47:07;;;;;;;3;2.3;;;;;;;3.01;84.24121;925.6975;;;;
2023/02/25 13:49:32;;;;;;;2.9;2.5;;;;;;;3.04;84.48438;925.6753;;;;
2023/02/25 13:51:57;;;;;;;3.8;2.8;;;;;;;2.94;85.19336;925.7103;;;;
2023/02/25 13:54:25;;;;;;;4.1;2.6;;;;;;;2.83;85.30469;925.8411;;;;
2023/02/25 13:56:50;;;;;;;4.6;2.7;;;;;;;2.92;85.75098;925.8042;;;;
2023/02/25 13:59:19;;;;;;;3.6;2.5;;;;;;;3.05;85.16992;925.7966;;;;
2023/02/25 14:01:50;;;;;;;3.3;2.8;;;;;;;3.21;84.58594;925.8003;;;;
2023/02/25 14:04:15;;;;;;;6.1;4;;;;;;;3.4;84.15137;925.827;;;;
2023/02/25 14:06:42;;;;;;;4.1;2.7;;;;;;;3.32;83.86816;925.7667;;;;
2023/02/25 14:09:07;;;;;;;5.1;3;;;;;;;3.13;84.4668;925.7317;;;;
2023/02/25 14:11:32;;;;;;;5.3;4;;;;;;;3.1;85.1123;925.817;;;;
2023/02/25 14:13:59;;;;;;;6.1;3.8;;;;;;;3.44;85.0459;925.7932;;;;
2023/02/25 14:16:30;;;;;;;4.3;3;;;;;;;3.6;83.55273;925.7653;;;;
2023/02/25 14:18:58;;;;;;;3.4;2.7;;;;;;;3.73;82.84668;925.6853;;;;
2023/02/25 14:21:23;;;;;;;2.8;2.5;;;;;;;3.89;81.94336;925.6697;;;;
2023/02/25 14:23:49;;;;;;;4;2.7;;;;;;;3.94;81.10938;925.6593;;;;
2023/02/25 14:26:13;;;;;;;3.1;2.2;;;;;;;4;80.80664;925.7144;;;;
2023/02/25 14:28:41;;;;;;;2.9;2.3;;;;;;;4.07;80.93262;925.7054;;;;
2023/02/25 14:31:08;;;;;;;3.7;2.5;;;;;;;4.11;80.50195;925.736;;;;
2023/02/25 14:33:33;;;;;;;6.5;3.9;;;;;;;4.21;80.50977;925.8069;;;;
2023/02/25 14:36:03;;;;;;;21.6;12.1;;;;;;;4;82.30176;925.8019;;;;
2023/02/25 14:38:32;;;;;;;4.7;2.8;;;;;;;4.05;81.38965;925.7989;;;;
2023/02/25 14:40:58;;;;;;;2.9;2;;;;;;;4.15;81.09375;925.8033;;;;
2023/02/25 14:43:33;;;;;;;2.5;1.8;;;;;;;4.26;80.41895;925.7886;;;;
2023/02/25 14:45:57;;;;;;;2.9;1.7;;;;;;;4.3;79.68262;925.7528;;;;
2023/02/25 14:48:23;;;;;;;3;1.8;;;;;;;4.35;79.13965;925.7084;;;;
2023/02/25 14:50:49;;;;;;;1.9;1.7;;;;;;;4.3;79.79492;925.7268;;;;
2023/02/25 14:53:15;;;;;;;2;1.7;;;;;;;4.19;79.19043;925.7898;;;;
2023/02/25 14:55:42;;;;;;;2;1.7;;;;;;;4.16;79.18457;925.8382;;;;
2023/02/25 14:58:10;;;;;;;2;1.8;;;;;;;4.14;80.06836;925.7489;;;;
2023/02/25 15:00:54;;;;;;;2;1.8;;;;;;;4.23;80.41406;925.7653;;;;